Flight Track Log - Related Links

Times and Time Zones

All times are in EDT time to prevent confusion due to time zone crossing. See the N531QS flight status page for this flight to view local times or setup timezone preferences in your user account.

Time Position Orientation Groundspeed Altitude Reporting Facility
EDT Latitude Longitude Course Direction KTS MPH feet Rate Location/Type
Mon 10:28:00 AM 28.4450 -30.8364 250° West  Level Estimated
Mon 10:29:00 AM 28.3719 -30.9525 234° Southwest  Level Estimated
Mon 10:30:00 AM 28.2988 -31.0684 234° Southwest  Level Estimated
Mon 10:31:00 AM 28.2256 -31.1842 234° Southwest  Level Estimated
Mon 10:32:00 AM 28.1522 -31.2998 234° Southwest  Level Estimated
Mon 10:33:00 AM 28.0788 -31.4152 234° Southwest  Level Estimated
Mon 10:34:00 AM 28.0053 -31.5305 234° Southwest  Level Estimated
Mon 10:35:00 AM 27.9317 -31.6456 234° Southwest  Level Estimated
Mon 10:36:00 AM 27.8580 -31.7606 234° Southwest  Level Estimated
Mon 10:37:00 AM 27.7841 -31.8754 234° Southwest  Level Estimated
Mon 10:38:00 AM 27.7103 -31.9900 234° Southwest  Level Estimated
Mon 10:39:00 AM 27.6362 -32.1045 234° Southwest  Level Estimated
Mon 10:40:00 AM 27.5622 -32.2189 234° Southwest  Level Estimated
Mon 10:41:00 AM 27.4880 -32.3331 234° Southwest  Level Estimated
Mon 10:42:00 AM 27.4137 -32.4471 234° Southwest  Level Estimated
Mon 10:43:00 AM 27.3393 -32.5610 234° Southwest  Level Estimated
Mon 10:44:00 AM 27.2649 -32.6747 234° Southwest  Level Estimated
Mon 10:45:00 AM 27.1903 -32.7883 234° Southwest  Level Estimated
Mon 10:46:00 AM 27.1157 -32.9017 234° Southwest  Level Estimated
Mon 10:47:00 AM 27.0409 -33.0150 233° Southwest  Level Estimated
Mon 10:48:00 AM 26.9661 -33.1281 233° Southwest  Level Estimated
Mon 10:49:00 AM 26.8912 -33.2411 233° Southwest  Level Estimated
Mon 10:50:00 AM 26.8162 -33.3539 233° Southwest  Level Estimated
Mon 10:51:00 AM 26.7411 -33.4666 233° Southwest  Level Estimated
Mon 10:52:00 AM 26.6659 -33.5791 233° Southwest  Level Estimated
Mon 10:53:00 AM 26.5906 -33.6915 233° Southwest  Level Estimated
Mon 10:54:00 AM 26.5152 -33.8037 233° Southwest  Level Estimated
Mon 10:55:00 AM 26.4398 -33.9158 233° Southwest  Level Estimated
Mon 10:56:00 AM 26.3643 -34.0277 233° Southwest  Level Estimated
Mon 10:57:00 AM 26.2886 -34.1395 233° Southwest  Level Estimated
Mon 10:58:00 AM 26.2129 -34.2512 233° Southwest  Level Estimated
Mon 10:59:00 AM 26.1371 -34.3627 233° Southwest  Level Estimated
Mon 11:00:00 AM 26.0612 -34.4740 233° Southwest  Level Estimated
Mon 11:01:00 AM 25.9853 -34.5852 233° Southwest  Level Estimated
Mon 11:02:00 AM 25.9092 -34.6963 233° Southwest  Level Estimated
Mon 11:03:00 AM 25.8331 -34.8072 233° Southwest  Level Estimated
Mon 11:04:00 AM 25.7569 -34.9180 233° Southwest  Level Estimated
Mon 11:05:00 AM 25.6805 -35.0286 233° Southwest  Level Estimated
Mon 11:06:00 AM 25.6042 -35.1391 233° Southwest  Level Estimated
Mon 11:07:00 AM 25.5277 -35.2495 232° Southwest  Level Estimated
Mon 11:08:00 AM 25.4511 -35.3597 232° Southwest  Level Estimated
Mon 11:09:00 AM 25.3745 -35.4698 232° Southwest  Level Estimated
Mon 11:10:00 AM 25.2978 -35.5797 232° Southwest  Level Estimated
Mon 11:11:00 AM 25.2210 -35.6895 232° Southwest  Level Estimated
Mon 11:12:00 AM 25.1441 -35.7991 232° Southwest  Level Estimated
Mon 11:13:00 AM 25.0671 -35.9087 232° Southwest  Level Estimated
Mon 11:14:00 AM 24.9901 -36.0180 232° Southwest  Level Estimated
Mon 11:15:00 AM 24.9130 -36.1273 232° Southwest  Level Estimated
Mon 11:16:00 AM 24.8358 -36.2364 232° Southwest  Level Estimated
Mon 11:17:00 AM 24.7585 -36.3454 232° Southwest  Level Estimated
Mon 11:18:00 AM 24.6811 -36.4542 232° Southwest  Level Estimated
Mon 11:19:00 AM 24.6037 -36.5629 232° Southwest  Level Estimated
Mon 11:20:00 AM 24.5262 -36.6715 232° Southwest  Level Estimated
Mon 11:21:00 AM 24.4486 -36.7799 232° Southwest  Level Estimated
Mon 11:22:00 AM 24.3709 -36.8882 232° Southwest  Level Estimated
Mon 11:23:00 AM 24.2932 -36.9964 232° Southwest  Level Estimated
Mon 11:24:00 AM 24.2154 -37.1044 232° Southwest  Level Estimated
Mon 11:25:00 AM 24.1375 -37.2123 232° Southwest  Level Estimated
Mon 11:26:00 AM 24.0595 -37.3201 232° Southwest  Level Estimated
Mon 11:27:00 AM 23.9814 -37.4277 232° Southwest  Level Estimated
Mon 11:28:00 AM 23.9033 -37.5352 232° Southwest  Level Estimated
Mon 11:29:00 AM 23.8251 -37.6426 231° Southwest  Level Estimated
Mon 11:30:00 AM 23.7468 -37.7499 231° Southwest  Level Estimated
Mon 11:31:00 AM 23.6685 -37.8570 231° Southwest  Level Estimated
Mon 11:32:00 AM 23.5901 -37.9640 231° Southwest  Level Estimated
Mon 11:33:00 AM 23.5116 -38.0708 231° Southwest  Level Estimated
Mon 11:34:00 AM 23.4330 -38.1776 231° Southwest  Level Estimated
Mon 11:35:00 AM 23.3544 -38.2842 231° Southwest  Level Estimated
Mon 11:36:00 AM 23.2757 -38.3907 231° Southwest  Level Estimated
Mon 11:37:00 AM 23.1969 -38.4970 231° Southwest  Level Estimated
Mon 11:38:00 AM 23.1180 -38.6032 231° Southwest  Level Estimated
Mon 11:39:00 AM 23.0391 -38.7094 231° Southwest  Level Estimated
Mon 11:40:00 AM 22.9601 -38.8153 231° Southwest  Level Estimated
Mon 11:41:00 AM 22.8810 -38.9212 231° Southwest  Level Estimated
Mon 11:42:00 AM 22.8019 -39.0269 231° Southwest  Level Estimated
Mon 11:43:00 AM 22.7227 -39.1325 231° Southwest  Level Estimated
Mon 11:44:00 AM 22.6434 -39.2380 231° Southwest  Level Estimated
Mon 11:45:00 AM 22.5640 -39.3434 231° Southwest  Level Estimated
Mon 11:46:00 AM 22.4846 -39.4487 231° Southwest  Level Estimated
Mon 11:47:00 AM 22.4051 -39.5538 231° Southwest  Level Estimated
Mon 11:48:00 AM 22.3256 -39.6588 231° Southwest  Level Estimated
Mon 11:49:00 AM 22.2460 -39.7637 231° Southwest  Level Estimated
Mon 11:50:00 AM 22.1663 -39.8685 231° Southwest  Level Estimated
Mon 11:51:00 AM 22.0865 -39.9731 231° Southwest  Level Estimated
Mon 11:52:00 AM 22.0067 -40.0776 231° Southwest  Level Estimated
Mon 11:53:00 AM 21.9268 -40.1820 230° Southwest  Level Estimated
Mon 11:54:00 AM 21.8469 -40.2863 230° Southwest  Level Estimated
Mon 11:55:00 AM 21.7669 -40.3905 230° Southwest  Level Estimated
Mon 11:56:00 AM 21.6868 -40.4946 230° Southwest  Level Estimated
Mon 11:57:00 AM 21.6066 -40.5985 230° Southwest  Level Estimated
Mon 11:58:00 AM 21.5264 -40.7024 230° Southwest  Level Estimated
Mon 11:59:00 AM 21.4462 -40.8061 230° Southwest  Level Estimated
Mon 12:00:00 PM 21.3658 -40.9097 230° Southwest  Level Estimated
Mon 12:01:00 PM 21.2854 -41.0132 230° Southwest  Level Estimated
Mon 12:02:00 PM 21.2050 -41.1166 230° Southwest  Level Estimated
Mon 12:03:00 PM 21.1244 -41.2198 230° Southwest  Level Estimated
Mon 12:04:00 PM 21.0438 -41.3230 230° Southwest  Level Estimated
Mon 12:05:00 PM 20.9632 -41.4260 230° Southwest  Level Estimated
Mon 12:06:00 PM 20.8825 -41.5289 230° Southwest  Level Estimated
Mon 12:07:00 PM 20.8017 -41.6317 230° Southwest  Level Estimated
Mon 12:08:00 PM 20.7209 -41.7345 230° Southwest  Level Estimated
Mon 12:09:00 PM 20.6400 -41.8371 230° Southwest  Level Estimated
Mon 12:10:00 PM 20.5590 -41.9395 230° Southwest  Level Estimated
Mon 12:11:00 PM 20.4780 -42.0419 230° Southwest  Level Estimated
Mon 12:12:00 PM 20.3969 -42.1442 230° Southwest  Level Estimated
Mon 12:13:00 PM 20.3158 -42.2464 230° Southwest  Level Estimated
Mon 12:14:00 PM 20.2346 -42.3484 230° Southwest  Level Estimated
Mon 12:15:00 PM 20.1533 -42.4504 230° Southwest  Level Estimated
Mon 12:16:00 PM 20.0720 -42.5522 230° Southwest  Level Estimated
Mon 12:17:00 PM 19.9905 -42.6541 230° Southwest  Level Estimated
Mon 12:18:00 PM 19.9090 -42.7559 230° Southwest  Level Estimated
Mon 12:19:00 PM 19.8274 -42.8576 230° Southwest  Level Estimated
Mon 12:20:00 PM 19.7457 -42.9591 230° Southwest  Level Estimated
Mon 12:21:00 PM 19.6640 -43.0606 229° Southwest  Level Estimated
Mon 12:22:00 PM 19.5822 -43.1619 229° Southwest  Level Estimated
Mon 12:23:00 PM 19.5004 -43.2632 229° Southwest  Level Estimated
Mon 12:24:00 PM 19.4185 -43.3644 229° Southwest  Level Estimated
Mon 12:25:00 PM 19.3366 -43.4654 229° Southwest  Level Estimated
Mon 12:26:00 PM 19.2546 -43.5664 229° Southwest  Level Estimated
Mon 12:27:00 PM 19.1725 -43.6672 229° Southwest  Level Estimated
Mon 12:28:00 PM 19.0904 -43.7680 229° Southwest  Level Estimated
Mon 12:29:00 PM 19.0082 -43.8686 229° Southwest  Level Estimated
Mon 12:30:00 PM 18.9260 -43.9692 229° Southwest  Level Estimated
Mon 12:31:00 PM 18.8438 -44.0696 229° Southwest  Level Estimated
Mon 12:32:00 PM 18.7614 -44.1700 229° Southwest  Level Estimated
Mon 12:33:00 PM 18.6790 -44.2702 229° Southwest  Level Estimated
Mon 12:34:00 PM 18.5966 -44.3704 229° Southwest  Level Estimated
Mon 12:35:00 PM 18.5141 -44.4704 229° Southwest  Level Estimated
Mon 12:36:00 PM 18.4316 -44.5704 229° Southwest  Level Estimated
Mon 12:37:00 PM 18.3490 -44.6703 229° Southwest  Level Estimated
Mon 12:38:00 PM 18.2664 -44.7700 229° Southwest  Level Estimated
Mon 12:39:00 PM 18.1837 -44.8697 229° Southwest  Level Estimated
Mon 12:40:00 PM 18.1009 -44.9693 229° Southwest  Level Estimated
Mon 12:41:00 PM 18.0181 -45.0688 229° Southwest  Level Estimated
Mon 12:42:00 PM 17.9353 -45.1682 229° Southwest  Level Estimated
Mon 12:43:00 PM 17.8524 -45.2675 229° Southwest  Level Estimated
Mon 12:44:00 PM 17.7694 -45.3667 229° Southwest  Level Estimated
Mon 12:45:00 PM 17.6864 -45.4658 229° Southwest  Level Estimated
Mon 12:46:00 PM 17.6034 -45.5648 229° Southwest  Level Estimated
Mon 12:47:00 PM 17.5203 -45.6638 229° Southwest  Level Estimated
Mon 12:48:00 PM 17.4371 -45.7626 229° Southwest  Level Estimated
Mon 12:49:00 PM 17.3540 -45.8614 229° Southwest  Level Estimated
Mon 12:50:00 PM 17.2707 -45.9600 229° Southwest  Level Estimated
Mon 12:51:00 PM 17.1874 -46.0586 229° Southwest  Level Estimated
Mon 12:52:00 PM 17.1041 -46.1571 228° Southwest  Level Estimated
Mon 12:53:00 PM 17.0207 -46.2555 228° Southwest  Level Estimated
Mon 12:54:00 PM 16.9373 -46.3538 228° Southwest  Level Estimated
Mon 12:55:00 PM 16.8538 -46.4520 228° Southwest  Level Estimated
Mon 12:56:00 PM 16.7703 -46.5502 228° Southwest  Level Estimated
Mon 12:57:00 PM 16.6867 -46.6482 228° Southwest  Level Estimated
Mon 12:58:00 PM 16.6031 -46.7462 228° Southwest  Level Estimated
Mon 12:59:00 PM 16.5194 -46.8441 228° Southwest  Level Estimated
Mon 01:00:00 PM 16.4357 -46.9419 228° Southwest  Level Estimated
Mon 01:01:00 PM 16.3519 -47.0396 228° Southwest  Level Estimated
Mon 01:02:00 PM 16.2681 -47.1372 228° Southwest  Level Estimated
Mon 01:03:00 PM 16.1843 -47.2347 228° Southwest  Level Estimated
Mon 01:04:00 PM 16.1004 -47.3322 228° Southwest  Level Estimated
Mon 01:05:00 PM 16.0165 -47.4296 228° Southwest  Level Estimated
Mon 01:06:00 PM 15.9325 -47.5269 228° Southwest  Level Estimated
Mon 01:07:00 PM 15.8485 -47.6241 228° Southwest  Level Estimated
Mon 01:08:00 PM 15.7644 -47.7212 228° Southwest  Level Estimated
Mon 01:09:00 PM 15.6803 -47.8183 228° Southwest  Level Estimated
Mon 01:10:00 PM 15.5961 -47.9153 228° Southwest  Level Estimated
Mon 01:11:00 PM 15.5119 -48.0121 228° Southwest  Level Estimated
Mon 01:12:00 PM 15.4277 -48.1090 228° Southwest  Level Estimated
Mon 01:13:00 PM 15.3434 -48.2057 228° Southwest  Level Estimated
Mon 01:14:00 PM 15.2591 -48.3024 228° Southwest  Level Estimated
Mon 01:15:00 PM 15.1748 -48.3989 228° Southwest  Level Estimated
Mon 01:16:00 PM 15.0904 -48.4954 228° Southwest  Level Estimated
Mon 01:17:00 PM 15.0059 -48.5919 228° Southwest  Level Estimated
Mon 01:18:00 PM 14.9214 -48.6882 228° Southwest  Level Estimated
Mon 01:19:00 PM 14.8369 -48.7845 228° Southwest  Level Estimated
Mon 01:20:00 PM 14.7524 -48.8807 228° Southwest  Level Estimated
Mon 01:21:00 PM 14.6678 -48.9768 228° Southwest  Level Estimated
Mon 01:22:00 PM 14.5831 -49.0729 228° Southwest  Level Estimated
Mon 01:23:00 PM 14.4984 -49.1689 228° Southwest  Level Estimated
Mon 01:24:00 PM 14.4137 -49.2648 228° Southwest  Level Estimated
Mon 01:25:00 PM 14.3290 -49.3606 228° Southwest  Level Estimated
Mon 01:26:00 PM 14.2442 -49.4564 228° Southwest  Level Estimated
Mon 01:27:00 PM 14.1593 -49.5521 228° Southwest  Level Estimated
Mon 01:28:00 PM 14.0744 -49.6477 228° Southwest  Level Estimated
Mon 01:29:00 PM 13.9895 -49.7432 228° Southwest  Level Estimated
Mon 01:30:00 PM 13.9046 -49.8387 227° Southwest  Level Estimated
Mon 01:31:00 PM 13.8196 -49.9341 227° Southwest  Level Estimated
Mon 01:32:00 PM 13.7346 -50.0294 227° Southwest  Level Estimated
Mon 01:33:00 PM 13.6495 -50.1247 227° Southwest  Level Estimated
Mon 01:34:00 PM 13.5644 -50.2199 227° Southwest  Level Estimated
Mon 01:35:00 PM 13.4793 -50.3150 227° Southwest  Level Estimated
Mon 01:36:00 PM 13.3941 -50.4101 227° Southwest  Level Estimated
Mon 01:37:00 PM 13.3089 -50.5051 227° Southwest  Level Estimated
Mon 01:38:00 PM 13.2237 -50.6000 227° Southwest  Level Estimated
Mon 01:39:00 PM 13.1384 -50.6949 227° Southwest  Level Estimated
Mon 01:40:00 PM 13.0531 -50.7896 227° Southwest  Level Estimated
Mon 01:41:00 PM 12.9678 -50.8844 227° Southwest  Level Estimated
Mon 01:42:00 PM 12.8824 -50.9790 227° Southwest  Level Estimated
Mon 01:43:00 PM 12.7970 -51.0736 227° Southwest  Level Estimated
Mon 01:44:00 PM 12.7115 -51.1682 227° Southwest  Level Estimated
Mon 01:45:00 PM 12.6261 -51.2626 227° Southwest  Level Estimated
Mon 01:46:00 PM 12.5406 -51.3571 227° Southwest  Level Estimated
Mon 01:47:00 PM 12.4550 -51.4514 227° Southwest  Level Estimated
Mon 01:48:00 PM 12.3694 -51.5457 227° Southwest  Level Estimated
Mon 01:49:00 PM 12.2838 -51.6399 227° Southwest  Level Estimated
Mon 01:50:00 PM 12.1982 -51.7341 227° Southwest  Level Estimated
Mon 01:51:00 PM 12.1125 -51.8282 227° Southwest  Level Estimated
Mon 01:52:00 PM 12.0268 -51.9222 227° Southwest  Level Estimated
Mon 01:53:00 PM 11.9411 -52.0162 227° Southwest  Level Estimated
Mon 01:54:00 PM 11.8553 -52.1101 227° Southwest  Level Estimated
Mon 01:55:00 PM 11.7695 -52.2040 227° Southwest  Level Estimated
Mon 01:56:00 PM 11.6837 -52.2978 227° Southwest  Level Estimated
Mon 01:57:00 PM 11.5978 -52.3915 227° Southwest  Level Estimated
Mon 01:58:00 PM 11.5119 -52.4852 227° Southwest  Level Estimated
Mon 01:59:00 PM 11.4260 -52.5788 227° Southwest  Level Estimated
Mon 02:00:00 PM 11.3400 -52.6724 227° Southwest  Level Estimated
Mon 02:01:00 PM 11.2541 -52.7659 227° Southwest  Level Estimated
Mon 02:02:00 PM 11.1681 -52.8594 227° Southwest  Level Estimated
Mon 02:03:00 PM 11.0820 -52.9528 227° Southwest  Level Estimated
Mon 02:04:00 PM 10.9960 -53.0461 227° Southwest  Level Estimated
Mon 02:05:00 PM 10.9099 -53.1394 227° Southwest  Level Estimated
Mon 02:06:00 PM 10.8237 -53.2327 227° Southwest  Level Estimated
Mon 02:07:00 PM 10.7376 -53.3259 227° Southwest  Level Estimated
Mon 02:08:00 PM 10.6514 -53.4190 227° Southwest  Level Estimated
Mon 02:09:00 PM 10.5652 -53.5121 227° Southwest  Level Estimated
Mon 02:10:00 PM 10.4790 -53.6051 227° Southwest  Level Estimated
Mon 02:11:00 PM 10.3927 -53.6981 227° Southwest  Level Estimated
Mon 02:12:00 PM 10.3064 -53.7910 227° Southwest  Level Estimated
Mon 02:13:00 PM 10.2201 -53.8839 227° Southwest  Level Estimated
Mon 02:14:00 PM 10.1338 -53.9767 227° Southwest  Level Estimated
Mon 02:15:00 PM 10.0474 -54.0695 227° Southwest  Level Estimated
Mon 02:16:00 PM 9.9610 -54.1622 227° Southwest  Level Estimated
Mon 02:17:00 PM 9.8746 -54.2549 227° Southwest  Level Estimated
Mon 02:18:00 PM 9.7882 -54.3475 227° Southwest  Level Estimated
Mon 02:19:00 PM 9.7017 -54.4401 227° Southwest  Level Estimated
Mon 02:20:00 PM 9.6152 -54.5327 227° Southwest  Level Estimated
Mon 02:21:00 PM 9.5287 -54.6251 227° Southwest  Level Estimated
Mon 02:22:00 PM 9.4422 -54.7176 227° Southwest  Level Estimated
Mon 02:23:00 PM 9.3556 -54.8100 226° Southwest  Level Estimated
Mon 02:24:00 PM 9.2690 -54.9023 226° Southwest  Level Estimated
Mon 02:25:00 PM 9.1824 -54.9946 226° Southwest  Level Estimated
Mon 02:26:00 PM 9.0958 -55.0869 226° Southwest  Level Estimated
Mon 02:27:00 PM 9.0091 -55.1791 226° Southwest  Level Estimated
Mon 02:28:00 PM 8.9224 -55.2713 226° Southwest  Level Estimated
Mon 02:29:00 PM 8.8357 -55.3634 226° Southwest  Level Estimated
Mon 02:30:00 PM 8.7490 -55.4555 226° Southwest  Level Estimated
Mon 02:31:00 PM 8.6622 -55.5475 226° Southwest  Level Estimated
Mon 02:32:00 PM 8.5755 -55.6395 226° Southwest  Level Estimated
Mon 02:33:00 PM 8.4887 -55.7314 226° Southwest  Level Estimated
Mon 02:34:00 PM 8.4019 -55.8233 226° Southwest  Level Estimated
Mon 02:35:00 PM 8.3150 -55.9152 226° Southwest  Level Estimated
Mon 02:36:00 PM 8.2282 -56.0070 226° Southwest  Level Estimated
Mon 02:37:00 PM 8.1413 -56.0988 226° Southwest  Level Estimated
Mon 02:38:00 PM 8.0544 -56.1906 226° Southwest  Level Estimated
Mon 02:39:00 PM 7.9675 -56.2823 226° Southwest  Level Estimated
Mon 02:40:00 PM 7.8805 -56.3740 226° Southwest  Level Estimated
Mon 02:41:00 PM 7.7936 -56.4656 226° Southwest  Level Estimated
Mon 02:42:00 PM 7.7066 -56.5572 226° Southwest  Level Estimated
Mon 02:43:00 PM 7.6196 -56.6488 226° Southwest  Level Estimated
Mon 02:44:00 PM 7.5326 -56.7403 226° Southwest  Level Estimated
Mon 02:45:00 PM 7.4455 -56.8317 226° Southwest  Level Estimated
Mon 02:46:00 PM 7.3585 -56.9232 226° Southwest  Level Estimated
Mon 02:47:00 PM 7.2714 -57.0146 226° Southwest  Level Estimated
Mon 02:48:00 PM 7.1843 -57.1060 226° Southwest  Level Estimated
Mon 02:49:00 PM 7.0972 -57.1973 226° Southwest  Level Estimated
Mon 02:50:00 PM 7.0101 -57.2886 226° Southwest  Level Estimated
Mon 02:51:00 PM 6.9229 -57.3799 226° Southwest  Level Estimated
Mon 02:52:00 PM 6.8358 -57.4711 226° Southwest  Level Estimated
Mon 02:53:00 PM 6.7486 -57.5623 226° Southwest  Level Estimated
Mon 02:54:00 PM 6.6614 -57.6535 226° Southwest  Level Estimated
Mon 02:55:00 PM 6.5742 -57.7446 226° Southwest  Level Estimated
Mon 02:56:00 PM 6.4870 -57.8358 226° Southwest  Level Estimated
Mon 02:57:00 PM 6.3997 -57.9268 226° Southwest  Level Estimated
Mon 02:58:00 PM 6.3124 -58.0179 226° Southwest  Level Estimated
Mon 02:59:00 PM 6.2252 -58.1089 226° Southwest  Level Estimated
Mon 03:00:00 PM 6.1379 -58.1998 226° Southwest  Level Estimated
Mon 03:01:00 PM 6.0506 -58.2908 226° Southwest  Level Estimated
Mon 03:02:00 PM 5.9633 -58.3817 226° Southwest  Level Estimated
Mon 03:03:00 PM 5.8759 -58.4726 226° Southwest  Level Estimated
Mon 03:04:00 PM 5.7886 -58.5635 226° Southwest  Level Estimated
Mon 03:05:00 PM 5.7012 -58.6543 226° Southwest  Level Estimated
Mon 03:06:00 PM 5.6138 -58.7451 226° Southwest  Level Estimated
Mon 03:07:00 PM 5.5264 -58.8359 226° Southwest  Level Estimated
Mon 03:08:00 PM 5.4390 -58.9267 226° Southwest  Level Estimated
Mon 03:09:00 PM 5.3516 -59.0174 226° Southwest  Level Estimated
Mon 03:10:00 PM 5.2641 -59.1081 226° Southwest  Level Estimated
Mon 03:11:00 PM 5.1767 -59.1988 226° Southwest  Level Estimated
Mon 03:12:00 PM 5.0892 -59.2894 226° Southwest  Level Estimated
Mon 03:13:00 PM 5.0017 -59.3801 226° Southwest  Level Estimated
Mon 03:14:00 PM 4.9143 -59.4707 226° Southwest  Level Estimated
Mon 03:15:00 PM 4.8268 -59.5612 226° Southwest  Level Estimated
Mon 03:16:00 PM 4.7393 -59.6518 226° Southwest  Level Estimated
Mon 03:17:00 PM 4.6517 -59.7423 226° Southwest  Level Estimated
Mon 03:18:00 PM 4.5642 -59.8328 226° Southwest  Level Estimated
Mon 03:19:00 PM 4.4766 -59.9233 226° Southwest  Level Estimated
Mon 03:20:00 PM 4.3891 -60.0138 226° Southwest  Level Estimated
Mon 03:21:00 PM 4.3015 -60.1043 226° Southwest  Level Estimated
Mon 03:22:00 PM 4.2139 -60.1947 226° Southwest  Level Estimated
Mon 03:23:00 PM 4.1263 -60.2851 226° Southwest  Level Estimated
Mon 03:24:00 PM 4.0387 -60.3755 226° Southwest  Level Estimated
Mon 03:25:00 PM 3.9511 -60.4659 226° Southwest  Level Estimated
Mon 03:26:00 PM 3.8635 -60.5562 226° Southwest  Level Estimated
Mon 03:27:00 PM 3.7759 -60.6465 226° Southwest  Level Estimated
Mon 03:28:00 PM 3.6882 -60.7368 226° Southwest  Level Estimated
Mon 03:29:00 PM 3.6006 -60.8271 226° Southwest  Level Estimated
Mon 03:30:00 PM 3.5129 -60.9174 226° Southwest  Level Estimated
Mon 03:31:00 PM 3.4253 -61.0077 226° Southwest  Level Estimated
Mon 03:32:00 PM 3.3376 -61.0979 226° Southwest  Level Estimated
Mon 03:33:00 PM 3.2499 -61.1881 226° Southwest  Level Estimated
Mon 03:34:00 PM 3.1622 -61.2784 226° Southwest  Level Estimated
Mon 03:35:00 PM 3.0745 -61.3685 226° Southwest  Level Estimated
Mon 03:36:00 PM 2.9868 -61.4587 226° Southwest  Level Estimated
Mon 03:37:00 PM 2.8991 -61.5489 226° Southwest  Level Estimated
Mon 03:38:00 PM 2.8114 -61.6390 226° Southwest  Level Estimated
Mon 03:39:00 PM 2.7236 -61.7292 226° Southwest  Level Estimated
Mon 03:40:00 PM 2.6359 -61.8193 226° Southwest  Level Estimated
Mon 03:41:00 PM 2.5482 -61.9094 226° Southwest  Level Estimated
Mon 03:42:00 PM 2.4604 -61.9995 226° Southwest  Level Estimated
Mon 03:43:00 PM 2.3727 -62.0896 226° Southwest  Level Estimated
Mon 03:44:00 PM 2.2849 -62.1797 226° Southwest  Level Estimated
Mon 03:45:00 PM 2.1972 -62.2697 226° Southwest  Level Estimated
Mon 03:46:00 PM 2.1094 -62.3598 226° Southwest  Level Estimated
Mon 03:47:00 PM 2.0216 -62.4498 226° Southwest  Level Estimated
Mon 03:48:00 PM 1.9338 -62.5399 226° Southwest  Level Estimated
Mon 03:49:00 PM 1.8461 -62.6299 226° Southwest  Level Estimated
Mon 03:50:00 PM 1.7583 -62.7199 226° Southwest  Level Estimated
Mon 03:51:00 PM 1.6705 -62.8099 226° Southwest  Level Estimated
Mon 03:52:00 PM 1.5827 -62.8999 226° Southwest  Level Estimated
Mon 03:53:00 PM 1.4949 -62.9899 226° Southwest  Level Estimated
Mon 03:54:00 PM 1.4071 -63.0799 226° Southwest  Level Estimated
Mon 03:55:00 PM 1.3193 -63.1699 226° Southwest  Level Estimated
Mon 03:56:00 PM 1.2314 -63.2599 226° Southwest  Level Estimated
Mon 03:57:00 PM 1.1436 -63.3498 226° Southwest  Level Estimated
Mon 03:58:00 PM 1.0558 -63.4398 226° Southwest  Level Estimated
Mon 03:59:00 PM 0.9680 -63.5298 226° Southwest  Level Estimated
Mon 04:00:00 PM 0.8802 -63.6197 226° Southwest  Level Estimated
Mon 04:01:00 PM 0.7924 -63.7096 226° Southwest  Level Estimated
Mon 04:02:00 PM 0.7045 -63.7996 226° Southwest  Level Estimated
Mon 04:03:00 PM 0.6167 -63.8895 226° Southwest  Level Estimated
Mon 04:04:00 PM 0.5289 -63.9795 226° Southwest  Level Estimated
Mon 04:05:00 PM 0.4410 -64.0694 226° Southwest  Level Estimated
Mon 04:06:00 PM 0.3532 -64.1593 226° Southwest  Level Estimated
Mon 04:07:00 PM 0.2654 -64.2493 226° Southwest  Level Estimated
Mon 04:08:00 PM 0.1776 -64.3392 226° Southwest  Level Estimated
Mon 04:09:00 PM 0.0897 -64.4291 226° Southwest  Level Estimated
Mon 04:10:00 PM 0.0019 -64.5191 226° Southwest  Level Estimated
Mon 04:11:00 PM -0.0859 -64.6090 226° Southwest  Level Estimated
Mon 04:12:00 PM -0.1738 -64.6989 226° Southwest  Level Estimated
Mon 04:13:00 PM -0.2616 -64.7888 226° Southwest  Level Estimated
Mon 04:14:00 PM -0.3494 -64.8788 226° Southwest  Level Estimated
Mon 04:15:00 PM -0.4373 -64.9687 226° Southwest  Level Estimated
Mon 04:16:00 PM -0.5251 -65.0586 226° Southwest  Level Estimated
Mon 04:17:00 PM -0.6129 -65.1486 226° Southwest  Level Estimated
Mon 04:18:00 PM -0.7007 -65.2385 226° Southwest  Level Estimated
Mon 04:19:00 PM -0.7886 -65.3285 226° Southwest  Level Estimated
Mon 04:20:00 PM -0.8764 -65.4184 226° Southwest  Level Estimated
Mon 04:21:00 PM -0.9642 -65.5083 226° Southwest  Level Estimated
Mon 04:22:00 PM -1.0520 -65.5983 226° Southwest  Level Estimated
Mon 04:23:00 PM -1.1399 -65.6883 226° Southwest  Level Estimated
Mon 04:24:00 PM -1.2277 -65.7782 226° Southwest  Level Estimated
Mon 04:25:00 PM -1.3155 -65.8682 226° Southwest  Level Estimated
Mon 04:26:00 PM -1.4033 -65.9582 226° Southwest  Level Estimated
Mon 04:27:00 PM -1.4911 -66.0482 226° Southwest  Level Estimated
Mon 04:28:00 PM -1.5789 -66.1382 226° Southwest  Level Estimated
Mon 04:29:00 PM -1.6667 -66.2282 226° Southwest  Level Estimated
Mon 04:30:00 PM -1.7545 -66.3182 226° Southwest  Level Estimated
Mon 04:31:00 PM -1.8423 -66.4082 226° Southwest  Level Estimated
Mon 04:32:00 PM -1.9301 -66.4982 226° Southwest  Level Estimated
Mon 04:33:00 PM -2.0179 -66.5882 226° Southwest  Level Estimated
Mon 04:34:00 PM -2.1056 -66.6783 226° Southwest  Level Estimated
Mon 04:35:00 PM -2.1934 -66.7683 226° Southwest  Level Estimated
Mon 04:36:00 PM -2.2812 -66.8584 226° Southwest  Level Estimated
Mon 04:37:00 PM -2.3689 -66.9485 226° Southwest  Level Estimated
Mon 04:38:00 PM -2.4567 -67.0386 226° Southwest  Level Estimated
Mon 04:39:00 PM -2.5444 -67.1287 226° Southwest  Level Estimated
Mon 04:40:00 PM -2.6322 -67.2188 226° Southwest  Level Estimated
Mon 04:41:00 PM -2.7199 -67.3089 226° Southwest  Level Estimated
Mon 04:42:00 PM -2.8076 -67.3990 226° Southwest  Level Estimated
Mon 04:43:00 PM -2.8953 -67.4892 226° Southwest  Level Estimated
Mon 04:44:00 PM -2.9831 -67.5794 226° Southwest  Level Estimated
Mon 04:45:00 PM -3.0708 -67.6695 226° Southwest  Level Estimated
Mon 04:46:00 PM -3.1585 -67.7597 226° Southwest  Level Estimated
Mon 04:47:00 PM -3.2462 -67.8499 226° Southwest  Level Estimated
Mon 04:48:00 PM -3.3338 -67.9401 226° Southwest  Level Estimated
Mon 04:49:00 PM -3.4215 -68.0304 226° Southwest  Level Estimated
Mon 04:50:00 PM -3.5092 -68.1207 226° Southwest  Level Estimated
Mon 04:51:00 PM -3.5968 -68.2109 226° Southwest  Level Estimated
Mon 04:52:00 PM -3.6845 -68.3012 226° Southwest  Level Estimated
Mon 04:53:00 PM -3.7721 -68.3915 226° Southwest  Level Estimated
Mon 04:54:00 PM -3.8598 -68.4818 226° Southwest  Level Estimated
Mon 04:55:00 PM -3.9474 -68.5722 226° Southwest  Level Estimated
Mon 04:56:00 PM -4.0350 -68.6626 226° Southwest  Level Estimated
Mon 04:57:00 PM -4.1226 -68.7530 226° Southwest  Level Estimated
Mon 04:58:00 PM -4.2102 -68.8434 226° Southwest  Level Estimated
Mon 04:59:00 PM -4.2978 -68.9338 226° Southwest  Level Estimated
Mon 05:00:00 PM -4.3853 -69.0242 226° Southwest  Level Estimated
Mon 05:01:00 PM -4.4729 -69.1147 226° Southwest  Level Estimated
Mon 05:02:00 PM -4.5604 -69.2052 226° Southwest  Level Estimated
Mon 05:03:00 PM -4.6480 -69.2957 226° Southwest  Level Estimated
Mon 05:04:00 PM -4.7355 -69.3862 226° Southwest  Level Estimated
Mon 05:05:00 PM -4.8230 -69.4768 226° Southwest  Level Estimated
Mon 05:06:00 PM -4.9105 -69.5674 226° Southwest  Level Estimated
Mon 05:07:00 PM -4.9980 -69.6580 226° Southwest  Level Estimated
Mon 05:08:00 PM -5.0855 -69.7486 226° Southwest  Level Estimated
Mon 05:09:00 PM -5.1729 -69.8392 226° Southwest  Level Estimated
Mon 05:10:00 PM -5.2604 -69.9299 226° Southwest  Level Estimated
Mon 05:11:00 PM -5.3478 -70.0206 226° Southwest  Level Estimated
Mon 05:12:00 PM -5.4352 -70.1114 226° Southwest  Level Estimated
Mon 05:13:00 PM -5.5227 -70.2021 226° Southwest  Level Estimated
Mon 05:14:00 PM -5.6101 -70.2929 226° Southwest  Level Estimated
Mon 05:15:00 PM -5.6974 -70.3837 226° Southwest  Level Estimated
Mon 05:16:00 PM -5.7848 -70.4745 226° Southwest  Level Estimated
Mon 05:17:00 PM -5.8722 -70.5654 226° Southwest  Level Estimated
Mon 05:18:00 PM -5.9595 -70.6563 226° Southwest  Level Estimated
Mon 05:19:00 PM -6.0468 -70.7472 226° Southwest  Level Estimated
Mon 05:20:00 PM -6.1341 -70.8382 226° Southwest  Level Estimated
Mon 05:21:00 PM -6.2214 -70.9291 226° Southwest  Level Estimated
Mon 05:22:00 PM -6.3087 -71.0201 226° Southwest  Level Estimated
Mon 05:23:00 PM -6.3960 -71.1112 226° Southwest  Level Estimated
Mon 05:24:00 PM -6.4832 -71.2023 226° Southwest  Level Estimated
Mon 05:25:00 PM -6.5704 -71.2934 226° Southwest  Level Estimated
Mon 05:26:00 PM -6.6576 -71.3845 226° Southwest  Level Estimated
Mon 05:27:00 PM -6.7449 -71.4757 226° Southwest  Level Estimated
Mon 05:28:00 PM -6.8320 -71.5669 226° Southwest  Level Estimated
Mon 05:29:00 PM -6.9192 -71.6581 226° Southwest  Level Estimated
Mon 05:30:00 PM -7.0063 -71.7494 226° Southwest  Level Estimated
Mon 05:31:00 PM -7.0935 -71.8407 226° Southwest  Level Estimated
Mon 05:32:00 PM -7.1806 -71.9320 226° Southwest  Level Estimated
Mon 05:33:00 PM -7.2677 -72.0234 226° Southwest  Level Estimated
Mon 05:34:00 PM -7.3547 -72.1148 226° Southwest  Level Estimated
Mon 05:35:00 PM -7.4418 -72.2062 226° Southwest  Level Estimated
Mon 05:36:00 PM -7.5288 -72.2977 226° Southwest  Level Estimated
Mon 05:37:00 PM -7.6159 -72.3892 226° Southwest  Level Estimated
Mon 05:38:00 PM -7.7029 -72.4808 226° Southwest  Level Estimated
Mon 05:39:00 PM -7.7898 -72.5724 226° Southwest  Level Estimated
Mon 05:40:00 PM -7.8768 -72.6640 226° Southwest  Level Estimated
Mon 05:41:00 PM -7.9637 -72.7557 226° Southwest  Level Estimated
Mon 05:42:00 PM -8.0507 -72.8474 226° Southwest  Level Estimated
Mon 05:43:00 PM -8.1376 -72.9391 226° Southwest  Level Estimated
Mon 05:44:00 PM -8.2244 -73.0309 226° Southwest  Level Estimated
Mon 05:45:00 PM -8.3113 -73.1228 226° Southwest  Level Estimated
Mon 05:46:00 PM -8.3981 -73.2146 226° Southwest  Level Estimated
Mon 05:47:00 PM -8.4850 -73.3065 226° Southwest  Level Estimated
Mon 05:48:00 PM -8.5717 -73.3985 226° Southwest  Level Estimated
Mon 05:49:00 PM -8.6585 -73.4905 226° Southwest  Level Estimated
Mon 05:50:00 PM -8.7453 -73.5825 226° Southwest  Level Estimated
Mon 05:51:00 PM -8.8320 -73.6746 226° Southwest  Level Estimated
Mon 05:52:00 PM -8.9187 -73.7667 226° Southwest  Level Estimated
Mon 05:53:00 PM -9.0054 -73.8589 226° Southwest  Level Estimated
Mon 05:54:00 PM -9.0920 -73.9511 226° Southwest  Level Estimated
Mon 05:55:00 PM -9.1787 -74.0433 226° Southwest  Level Estimated
Mon 05:56:00 PM -9.2653 -74.1356 226° Southwest  Level Estimated
Mon 05:57:00 PM -9.3519 -74.2280 226° Southwest  Level Estimated
Mon 05:58:00 PM -9.4384 -74.3204 226° Southwest  Level Estimated
Mon 05:59:00 PM -9.5250 -74.4128 226° Southwest  Level Estimated
Mon 06:00:00 PM -9.6115 -74.5053 227° Southwest  Level Estimated
Mon 06:01:00 PM -9.6980 -74.5978 227° Southwest  Level Estimated
Mon 06:02:00 PM -9.7845 -74.6904 227° Southwest  Level Estimated
Mon 06:03:00 PM -9.8709 -74.7830 227° Southwest  Level Estimated
Mon 06:04:00 PM -9.9573 -74.8757 227° Southwest  Level Estimated
Mon 06:05:00 PM -10.0437 -74.9684 227° Southwest  Level Estimated
Mon 06:06:00 PM -10.1301 -75.0612 227° Southwest  Level Estimated
Mon 06:07:00 PM -10.2164 -75.1540 227° Southwest  Level Estimated
Mon 06:08:00 PM -10.3027 -75.2469 227° Southwest  Level Estimated
Mon 06:09:00 PM -10.3890 -75.3398 227° Southwest  Level Estimated
Mon 06:10:00 PM -10.4753 -75.4328 227° Southwest  Level Estimated
Mon 06:11:00 PM -10.5615 -75.5258 227° Southwest  Level Estimated
Mon 06:12:00 PM -10.6477 -75.6189 227° Southwest  Level Estimated
Mon 06:13:00 PM -10.7339 -75.7120 227° Southwest  Level Estimated
Mon 06:14:00 PM -10.8201 -75.8052 227° Southwest  Level Estimated
Mon 06:15:00 PM -10.9062 -75.8985 227° Southwest  Level Estimated
Mon 06:16:00 PM -10.9923 -75.9917 227° Southwest  Level Estimated
Mon 06:17:00 PM -11.0783 -76.0851 227° Southwest  Level Estimated
Mon 06:18:00 PM -11.1644 -76.1785 227° Southwest  Level Estimated
Mon 06:19:00 PM -11.2504 -76.2719 227° Southwest  Level Estimated
Mon 06:20:00 PM -11.3364 -76.3655 227° Southwest  Level Estimated
Mon 06:21:00 PM -11.4223 -76.4590 227° Southwest  Level Estimated
Mon 06:22:00 PM -11.5082 -76.5527 227° Southwest  Level Estimated
Mon 06:23:00 PM -11.5941 -76.6464 227° Southwest  Level Estimated
Mon 06:24:00 PM -11.6800 -76.7401 227° Southwest  Level Estimated
Mon 06:25:00 PM -11.7658 -76.8339 227° Southwest  Level Estimated
Mon 06:26:00 PM -11.8516 -76.9278 227° Southwest  Level Estimated
Mon 06:27:00 PM -11.9374 -77.0217 227° Southwest  Level Estimated
Mon 06:28:00 PM -12.0219 -77.1143 227° Southwest  Level Estimated
Mon 06:29:00 PM -12.0219 -77.1143 44° Northeast  Level Estimated
Mon 06:30:00 PM -12.0219 -77.1143 44° Northeast  Level Estimated
Mon 06:31:00 PM -12.0219 -77.1143 44° Northeast  Level Estimated
Mon 06:32:00 PM -12.0219 -77.1143 44° Northeast  Level Estimated
Mon 06:33:00 PM -12.0219 -77.1143 44° Northeast  Level Estimated
Mon 06:34:00 PM -12.0219 -77.1143 44° Northeast  Level Estimated
Mon 06:35:00 PM -12.0219 -77.1143 44° Northeast  Level Estimated
Mon 06:36:00 PM -12.0219 -77.1143 44° Northeast  Level Estimated
Mon 06:37:00 PM -12.0219 -77.1143 44° Northeast  Level Estimated
Mon 06:38:00 PM -12.0219 -77.1143 44° Northeast  Level Estimated
Mon 06:39:00 PM -12.0219 -77.1143 44° Northeast  Level Estimated
Mon 06:40:00 PM -12.0219 -77.1143 44° Northeast  Level Estimated
Mon 06:41:00 PM -12.0219 -77.1143 44° Northeast  Level Estimated
Mon 06:42:00 PM -12.0219 -77.1143 44° Northeast  Level Estimated
Mon 06:43:00 PM -12.0219 -77.1143 44° Northeast  Level Estimated
Mon 06:44:00 PM -12.0219 -77.1143 44° Northeast  Level Estimated

Login

Don't have an account? Register now (free) for customized features, flight alerts, and more!